Honolulu, Hawaii
Current Conditions -  °F | °C
As of 8:53 PM on Monday 20 Oct 2014 (Local Time) from PHNL Reporting Station
Scattered Clouds Scattered Clouds  
Wind Chill: 80°   Ceiling: Unl
Heat Index: 83°   Visibility: 10mi
Dew Point: 70°   Wind: 5mph
Humidity: 71%   Direction: 50°NE
Pressure: 30.03"   Gusts: NA
Location:  21.3°N, 157.85°W
Report Text: PHNL 210653Z 05004KT 10SM FEW033 SCT046 SCT080 27/21 A3003 RMK AO2 SLP168 T02670211 $
Loading
Personal Weather Stations






























Interactive Weather Map New forecast layout! Learn more

10-Day Weather Forecast

Advertisements
Track Severe Weather on mobile